sensor_id;sensor_type;location;lat;lon;timestamp;P1;durP1;ratioP1;P2;durP2;ratioP2
30046;SDS011;16878;52.542;13.426;2023-01-29T00:01:44;24.98;;;13.93;;
30046;SDS011;16878;52.542;13.426;2023-01-29T00:04:09;22.42;;;13.45;;
30046;SDS011;16878;52.542;13.426;2023-01-29T00:06:35;24.30;;;14.18;;
30046;SDS011;16878;52.542;13.426;2023-01-29T00:09:01;24.58;;;14.38;;
30046;SDS011;16878;52.542;13.426;2023-01-29T00:11:26;27.02;;;13.65;;
30046;SDS011;16878;52.542;13.426;2023-01-29T00:13:52;25.98;;;13.63;;
30046;SDS011;16878;52.542;13.426;2023-01-29T00:16:18;27.58;;;15.45;;
30046;SDS011;16878;52.542;13.426;2023-01-29T00:18:44;22.55;;;14.30;;
30046;SDS011;16878;52.542;13.426;2023-01-29T00:21:14;24.27;;;14.98;;
30046;SDS011;16878;52.542;13.426;2023-01-29T00:23:41;26.92;;;14.52;;
30046;SDS011;16878;52.542;13.426;2023-01-29T00:26:10;24.63;;;14.55;;
30046;SDS011;16878;52.542;13.426;2023-01-29T00:28:36;25.95;;;14.85;;
30046;SDS011;16878;52.542;13.426;2023-01-29T00:31:09;23.45;;;15.60;;
30046;SDS011;16878;52.542;13.426;2023-01-29T00:33:36;27.80;;;15.45;;
30046;SDS011;16878;52.542;13.426;2023-01-29T00:36:06;27.90;;;15.98;;
30046;SDS011;16878;52.542;13.426;2023-01-29T00:38:33;27.10;;;15.68;;
30046;SDS011;16878;52.542;13.426;2023-01-29T00:43:54;30.35;;;15.15;;
30046;SDS011;16878;52.542;13.426;2023-01-29T00:46:39;26.75;;;16.55;;
30046;SDS011;16878;52.542;13.426;2023-01-29T00:49:04;25.88;;;16.00;;
30046;SDS011;16878;52.542;13.426;2023-01-29T00:51:31;28.63;;;16.83;;
30046;SDS011;16878;52.542;13.426;2023-01-29T00:53:56;30.10;;;16.55;;
30046;SDS011;16878;52.542;13.426;2023-01-29T00:56:25;27.73;;;17.05;;
30046;SDS011;16878;52.542;13.426;2023-01-29T00:58:52;31.27;;;17.38;;
30046;SDS011;16878;52.542;13.426;2023-01-29T01:01:18;29.30;;;17.17;;
30046;SDS011;16878;52.542;13.426;2023-01-29T01:04:04;35.50;;;17.45;;
30046;SDS011;16878;52.542;13.426;2023-01-29T01:06:30;29.10;;;17.88;;
30046;SDS011;16878;52.542;13.426;2023-01-29T01:08:56;29.15;;;17.52;;
30046;SDS011;16878;52.542;13.426;2023-01-29T01:11:40;27.73;;;17.08;;
30046;SDS011;16878;52.542;13.426;2023-01-29T01:14:06;29.92;;;18.05;;
30046;SDS011;16878;52.542;13.426;2023-01-29T01:16:32;31.48;;;19.30;;
30046;SDS011;16878;52.542;13.426;2023-01-29T01:18:58;32.13;;;17.85;;
30046;SDS011;16878;52.542;13.426;2023-01-29T01:21:23;28.60;;;18.55;;
30046;SDS011;16878;52.542;13.426;2023-01-29T01:23:49;31.40;;;18.40;;
30046;SDS011;16878;52.542;13.426;2023-01-29T01:26:16;29.80;;;18.90;;
30046;SDS011;16878;52.542;13.426;2023-01-29T01:28:42;31.90;;;18.58;;
30046;SDS011;16878;52.542;13.426;2023-01-29T01:31:11;37.92;;;20.33;;
30046;SDS011;16878;52.542;13.426;2023-01-29T01:33:38;31.58;;;20.23;;
30046;SDS011;16878;52.542;13.426;2023-01-29T01:36:05;32.90;;;18.77;;
30046;SDS011;16878;52.542;13.426;2023-01-29T01:38:37;31.95;;;19.38;;
30046;SDS011;16878;52.542;13.426;2023-01-29T01:41:17;34.78;;;19.40;;
30046;SDS011;16878;52.542;13.426;2023-01-29T01:43:48;31.35;;;19.80;;
30046;SDS011;16878;52.542;13.426;2023-01-29T01:46:18;34.33;;;20.50;;
30046;SDS011;16878;52.542;13.426;2023-01-29T01:48:45;38.58;;;21.25;;
30046;SDS011;16878;52.542;13.426;2023-01-29T01:51:16;32.90;;;19.73;;
30046;SDS011;16878;52.542;13.426;2023-01-29T01:53:44;32.15;;;19.70;;
30046;SDS011;16878;52.542;13.426;2023-01-29T01:56:27;33.67;;;20.63;;
30046;SDS011;16878;52.542;13.426;2023-01-29T01:59:03;32.92;;;20.35;;
30046;SDS011;16878;52.542;13.426;2023-01-29T02:01:32;34.28;;;20.55;;
30046;SDS011;16878;52.542;13.426;2023-01-29T02:04:07;36.25;;;21.13;;
30046;SDS011;16878;52.542;13.426;2023-01-29T02:06:55;37.58;;;21.60;;
30046;SDS011;16878;52.542;13.426;2023-01-29T02:09:45;38.85;;;21.88;;
30046;SDS011;16878;52.542;13.426;2023-01-29T02:12:13;33.65;;;20.10;;
30046;SDS011;16878;52.542;13.426;2023-01-29T02:14:41;36.47;;;20.48;;
30046;SDS011;16878;52.542;13.426;2023-01-29T02:17:17;35.47;;;21.15;;
30046;SDS011;16878;52.542;13.426;2023-01-29T02:19:49;39.08;;;23.35;;
30046;SDS011;16878;52.542;13.426;2023-01-29T02:34:08;43.10;;;24.73;;
30046;SDS011;16878;52.542;13.426;2023-01-29T02:36:45;37.65;;;22.08;;
30046;SDS011;16878;52.542;13.426;2023-01-29T02:42:24;36.00;;;20.60;;
30046;SDS011;16878;52.542;13.426;2023-01-29T02:45:13;36.10;;;22.08;;
30046;SDS011;16878;52.542;13.426;2023-01-29T02:48:17;46.60;;;25.30;;
30046;SDS011;16878;52.542;13.426;2023-01-29T02:50:44;36.85;;;21.98;;
30046;SDS011;16878;52.542;13.426;2023-01-29T02:53:24;40.33;;;21.37;;
30046;SDS011;16878;52.542;13.426;2023-01-29T02:55:58;34.20;;;21.17;;
30046;SDS011;16878;52.542;13.426;2023-01-29T03:01:08;40.05;;;20.77;;
30046;SDS011;16878;52.542;13.426;2023-01-29T03:03:40;46.28;;;23.25;;
30046;SDS011;16878;52.542;13.426;2023-01-29T03:11:19;38.72;;;22.02;;
30046;SDS011;16878;52.542;13.426;2023-01-29T03:14:28;36.55;;;21.13;;
30046;SDS011;16878;52.542;13.426;2023-01-29T03:16:50;39.05;;;21.10;;
30046;SDS011;16878;52.542;13.426;2023-01-29T03:21:56;41.10;;;22.07;;
30046;SDS011;16878;52.542;13.426;2023-01-29T03:24:25;40.50;;;22.90;;
30046;SDS011;16878;52.542;13.426;2023-01-29T03:27:26;36.47;;;21.70;;
30046;SDS011;16878;52.542;13.426;2023-01-29T03:30:24;38.08;;;21.98;;
30046;SDS011;16878;52.542;13.426;2023-01-29T03:33:11;36.80;;;21.20;;
30046;SDS011;16878;52.542;13.426;2023-01-29T03:35:43;34.85;;;21.15;;
30046;SDS011;16878;52.542;13.426;2023-01-29T03:38:15;34.40;;;21.00;;
30046;SDS011;16878;52.542;13.426;2023-01-29T03:40:44;37.28;;;22.35;;
30046;SDS011;16878;52.542;13.426;2023-01-29T03:43:24;40.70;;;23.70;;
30046;SDS011;16878;52.542;13.426;2023-01-29T03:51:10;42.45;;;24.33;;
30046;SDS011;16878;52.542;13.426;2023-01-29T03:53:41;40.20;;;23.05;;
30046;SDS011;16878;52.542;13.426;2023-01-29T04:01:48;46.42;;;23.77;;
30046;SDS011;16878;52.542;13.426;2023-01-29T04:04:36;39.17;;;22.67;;
30046;SDS011;16878;52.542;13.426;2023-01-29T04:07:12;43.42;;;23.80;;
30046;SDS011;16878;52.542;13.426;2023-01-29T04:09:45;36.55;;;22.70;;
30046;SDS011;16878;52.542;13.426;2023-01-29T04:12:16;30.90;;;21.00;;
30046;SDS011;16878;52.542;13.426;2023-01-29T04:14:46;36.38;;;22.40;;
30046;SDS011;16878;52.542;13.426;2023-01-29T04:17:17;38.42;;;22.45;;
30046;SDS011;16878;52.542;13.426;2023-01-29T04:19:49;35.35;;;22.08;;
30046;SDS011;16878;52.542;13.426;2023-01-29T04:22:22;41.45;;;23.00;;
30046;SDS011;16878;52.542;13.426;2023-01-29T04:24:52;35.42;;;21.20;;
30046;SDS011;16878;52.542;13.426;2023-01-29T04:27:35;40.60;;;22.67;;
30046;SDS011;16878;52.542;13.426;2023-01-29T04:33:12;37.35;;;22.98;;
30046;SDS011;16878;52.542;13.426;2023-01-29T04:43:57;38.42;;;22.70;;
30046;SDS011;16878;52.542;13.426;2023-01-29T05:00:08;40.25;;;24.05;;
30046;SDS011;16878;52.542;13.426;2023-01-29T05:02:43;45.38;;;24.77;;
30046;SDS011;16878;52.542;13.426;2023-01-29T05:05:09;39.72;;;23.60;;
30046;SDS011;16878;52.542;13.426;2023-01-29T05:07:38;46.00;;;25.63;;
30046;SDS011;16878;52.542;13.426;2023-01-29T05:10:09;43.70;;;24.88;;
30046;SDS011;16878;52.542;13.426;2023-01-29T05:12:36;39.80;;;24.33;;
30046;SDS011;16878;52.542;13.426;2023-01-29T05:15:04;42.30;;;24.40;;
30046;SDS011;16878;52.542;13.426;2023-01-29T05:17:38;55.45;;;25.25;;
30046;SDS011;16878;52.542;13.426;2023-01-29T05:20:05;42.55;;;25.33;;
30046;SDS011;16878;52.542;13.426;2023-01-29T05:22:32;52.55;;;26.60;;
30046;SDS011;16878;52.542;13.426;2023-01-29T05:25:05;41.97;;;25.80;;
30046;SDS011;16878;52.542;13.426;2023-01-29T05:27:51;45.92;;;27.13;;
30046;SDS011;16878;52.542;13.426;2023-01-29T05:30:40;49.13;;;28.00;;
30046;SDS011;16878;52.542;13.426;2023-01-29T05:33:12;51.33;;;27.08;;
30046;SDS011;16878;52.542;13.426;2023-01-29T05:35:40;50.33;;;27.83;;
30046;SDS011;16878;52.542;13.426;2023-01-29T05:38:06;48.60;;;28.13;;
30046;SDS011;16878;52.542;13.426;2023-01-29T05:40:31;46.35;;;26.92;;
30046;SDS011;16878;52.542;13.426;2023-01-29T05:42:57;49.92;;;29.15;;
30046;SDS011;16878;52.542;13.426;2023-01-29T05:45:23;49.67;;;28.35;;
30046;SDS011;16878;52.542;13.426;2023-01-29T05:47:49;51.00;;;27.55;;
30046;SDS011;16878;52.542;13.426;2023-01-29T05:50:14;49.58;;;28.60;;
30046;SDS011;16878;52.542;13.426;2023-01-29T05:52:40;57.60;;;28.90;;
30046;SDS011;16878;52.542;13.426;2023-01-29T05:55:07;54.50;;;29.42;;
30046;SDS011;16878;52.542;13.426;2023-01-29T05:57:34;54.35;;;27.45;;
30046;SDS011;16878;52.542;13.426;2023-01-29T06:00:00;50.20;;;28.75;;
30046;SDS011;16878;52.542;13.426;2023-01-29T06:02:28;57.15;;;29.42;;
30046;SDS011;16878;52.542;13.426;2023-01-29T06:04:57;52.90;;;29.27;;
30046;SDS011;16878;52.542;13.426;2023-01-29T06:07:22;55.63;;;29.25;;
30046;SDS011;16878;52.542;13.426;2023-01-29T06:09:48;50.63;;;29.02;;
30046;SDS011;16878;52.542;13.426;2023-01-29T06:12:14;56.40;;;28.65;;
30046;SDS011;16878;52.542;13.426;2023-01-29T06:14:39;52.10;;;28.85;;
30046;SDS011;16878;52.542;13.426;2023-01-29T06:17:05;55.65;;;30.33;;
30046;SDS011;16878;52.542;13.426;2023-01-29T06:19:30;54.08;;;32.03;;
30046;SDS011;16878;52.542;13.426;2023-01-29T06:21:56;57.75;;;30.75;;
30046;SDS011;16878;52.542;13.426;2023-01-29T06:24:22;56.58;;;31.08;;
30046;SDS011;16878;52.542;13.426;2023-01-29T06:26:47;56.22;;;29.80;;
30046;SDS011;16878;52.542;13.426;2023-01-29T06:29:13;52.20;;;30.00;;
30046;SDS011;16878;52.542;13.426;2023-01-29T06:31:39;57.30;;;30.92;;
30046;SDS011;16878;52.542;13.426;2023-01-29T06:34:05;54.65;;;30.10;;
30046;SDS011;16878;52.542;13.426;2023-01-29T06:36:37;49.22;;;29.25;;
30046;SDS011;16878;52.542;13.426;2023-01-29T06:39:05;56.03;;;30.60;;
30046;SDS011;16878;52.542;13.426;2023-01-29T06:41:31;59.38;;;31.55;;
30046;SDS011;16878;52.542;13.426;2023-01-29T06:43:58;52.88;;;29.52;;
30046;SDS011;16878;52.542;13.426;2023-01-29T06:46:25;56.38;;;29.77;;
30046;SDS011;16878;52.542;13.426;2023-01-29T06:48:51;52.03;;;29.55;;
30046;SDS011;16878;52.542;13.426;2023-01-29T06:51:19;51.05;;;29.48;;
30046;SDS011;16878;52.542;13.426;2023-01-29T06:53:46;58.88;;;31.27;;
30046;SDS011;16878;52.542;13.426;2023-01-29T06:56:12;61.40;;;31.65;;
30046;SDS011;16878;52.542;13.426;2023-01-29T06:58:38;59.10;;;31.10;;
30046;SDS011;16878;52.542;13.426;2023-01-29T07:01:08;60.72;;;33.47;;
30046;SDS011;16878;52.542;13.426;2023-01-29T07:03:36;61.95;;;33.90;;
30046;SDS011;16878;52.542;13.426;2023-01-29T07:06:03;59.85;;;33.50;;
30046;SDS011;16878;52.542;13.426;2023-01-29T07:08:30;67.90;;;36.35;;
30046;SDS011;16878;52.542;13.426;2023-01-29T07:10:59;65.32;;;36.08;;
30046;SDS011;16878;52.542;13.426;2023-01-29T07:13:25;60.72;;;34.75;;
30046;SDS011;16878;52.542;13.426;2023-01-29T07:15:51;65.78;;;33.58;;
30046;SDS011;16878;52.542;13.426;2023-01-29T07:18:18;58.70;;;31.63;;
30046;SDS011;16878;52.542;13.426;2023-01-29T07:20:44;57.78;;;31.70;;
30046;SDS011;16878;52.542;13.426;2023-01-29T07:23:13;57.90;;;31.13;;
30046;SDS011;16878;52.542;13.426;2023-01-29T07:25:39;56.03;;;30.90;;
30046;SDS011;16878;52.542;13.426;2023-01-29T07:28:05;51.83;;;31.08;;
30046;SDS011;16878;52.542;13.426;2023-01-29T07:30:31;56.58;;;31.50;;
30046;SDS011;16878;52.542;13.426;2023-01-29T07:33:01;56.33;;;30.30;;
30046;SDS011;16878;52.542;13.426;2023-01-29T07:35:28;52.50;;;30.80;;
30046;SDS011;16878;52.542;13.426;2023-01-29T07:37:54;52.60;;;30.85;;
30046;SDS011;16878;52.542;13.426;2023-01-29T07:40:19;54.30;;;30.05;;
30046;SDS011;16878;52.542;13.426;2023-01-29T07:42:45;54.92;;;30.85;;
30046;SDS011;16878;52.542;13.426;2023-01-29T07:45:11;50.53;;;29.83;;
30046;SDS011;16878;52.542;13.426;2023-01-29T07:47:37;61.20;;;30.60;;
30046;SDS011;16878;52.542;13.426;2023-01-29T07:50:03;57.28;;;31.30;;
30046;SDS011;16878;52.542;13.426;2023-01-29T07:52:30;59.22;;;31.48;;
30046;SDS011;16878;52.542;13.426;2023-01-29T07:54:57;55.97;;;31.30;;
30046;SDS011;16878;52.542;13.426;2023-01-29T07:57:22;55.30;;;31.65;;
30046;SDS011;16878;52.542;13.426;2023-01-29T07:59:48;53.35;;;30.85;;
30046;SDS011;16878;52.542;13.426;2023-01-29T08:02:14;56.45;;;32.30;;
30046;SDS011;16878;52.542;13.426;2023-01-29T08:04:40;55.03;;;31.55;;
30046;SDS011;16878;52.542;13.426;2023-01-29T08:07:05;55.97;;;30.40;;
30046;SDS011;16878;52.542;13.426;2023-01-29T08:09:33;54.28;;;31.05;;
30046;SDS011;16878;52.542;13.426;2023-01-29T08:11:59;64.63;;;31.85;;
30046;SDS011;16878;52.542;13.426;2023-01-29T08:14:25;58.50;;;33.03;;
30046;SDS011;16878;52.542;13.426;2023-01-29T08:16:51;56.00;;;31.35;;
30046;SDS011;16878;52.542;13.426;2023-01-29T08:19:16;61.00;;;32.45;;
30046;SDS011;16878;52.542;13.426;2023-01-29T08:21:42;57.10;;;33.40;;
30046;SDS011;16878;52.542;13.426;2023-01-29T08:24:08;57.00;;;32.15;;
30046;SDS011;16878;52.542;13.426;2023-01-29T08:26:34;60.70;;;32.10;;
30046;SDS011;16878;52.542;13.426;2023-01-29T08:28:59;59.20;;;31.02;;
30046;SDS011;16878;52.542;13.426;2023-01-29T08:31:25;55.40;;;31.85;;
30046;SDS011;16878;52.542;13.426;2023-01-29T08:33:52;60.15;;;32.28;;
30046;SDS011;16878;52.542;13.426;2023-01-29T08:36:22;51.53;;;30.60;;
30046;SDS011;16878;52.542;13.426;2023-01-29T08:38:48;55.97;;;31.63;;
30046;SDS011;16878;52.542;13.426;2023-01-29T08:41:14;52.92;;;30.83;;
30046;SDS011;16878;52.542;13.426;2023-01-29T08:43:40;59.38;;;32.17;;
30046;SDS011;16878;52.542;13.426;2023-01-29T08:46:06;59.55;;;32.40;;
30046;SDS011;16878;52.542;13.426;2023-01-29T08:48:33;61.70;;;31.95;;
30046;SDS011;16878;52.542;13.426;2023-01-29T08:50:59;51.28;;;30.80;;
30046;SDS011;16878;52.542;13.426;2023-01-29T08:53:26;56.30;;;32.30;;
30046;SDS011;16878;52.542;13.426;2023-01-29T08:55:52;59.40;;;31.85;;
30046;SDS011;16878;52.542;13.426;2023-01-29T08:58:18;59.75;;;33.15;;
30046;SDS011;16878;52.542;13.426;2023-01-29T09:00:44;60.15;;;32.80;;
30046;SDS011;16878;52.542;13.426;2023-01-29T09:03:10;55.60;;;32.20;;
30046;SDS011;16878;52.542;13.426;2023-01-29T09:05:39;65.75;;;32.13;;
30046;SDS011;16878;52.542;13.426;2023-01-29T09:08:06;67.07;;;34.75;;
30046;SDS011;16878;52.542;13.426;2023-01-29T09:10:33;57.22;;;32.75;;
30046;SDS011;16878;52.542;13.426;2023-01-29T09:13:18;62.83;;;34.67;;
30046;SDS011;16878;52.542;13.426;2023-01-29T09:15:44;58.95;;;33.42;;
30046;SDS011;16878;52.542;13.426;2023-01-29T09:18:11;59.53;;;34.47;;
30046;SDS011;16878;52.542;13.426;2023-01-29T09:20:36;58.83;;;35.47;;
30046;SDS011;16878;52.542;13.426;2023-01-29T09:23:04;68.75;;;38.47;;
30046;SDS011;16878;52.542;13.426;2023-01-29T09:25:30;68.68;;;37.00;;
30046;SDS011;16878;52.542;13.426;2023-01-29T09:27:56;72.07;;;36.85;;
30046;SDS011;16878;52.542;13.426;2023-01-29T09:30:25;64.68;;;37.42;;
30046;SDS011;16878;52.542;13.426;2023-01-29T09:32:53;73.95;;;37.05;;
30046;SDS011;16878;52.542;13.426;2023-01-29T09:35:20;68.00;;;36.47;;
30046;SDS011;16878;52.542;13.426;2023-01-29T09:37:47;62.72;;;35.70;;
30046;SDS011;16878;52.542;13.426;2023-01-29T09:40:57;73.38;;;36.50;;
30046;SDS011;16878;52.542;13.426;2023-01-29T09:43:14;61.22;;;34.72;;
30046;SDS011;16878;52.542;13.426;2023-01-29T09:45:59;70.70;;;35.80;;
30046;SDS011;16878;52.542;13.426;2023-01-29T09:48:30;64.15;;;33.08;;
30046;SDS011;16878;52.542;13.426;2023-01-29T09:50:58;69.03;;;34.55;;
30046;SDS011;16878;52.542;13.426;2023-01-29T09:56:15;56.88;;;32.35;;
30046;SDS011;16878;52.542;13.426;2023-01-29T09:58:45;54.25;;;30.15;;
30046;SDS011;16878;52.542;13.426;2023-01-29T10:01:14;55.40;;;30.05;;
30046;SDS011;16878;52.542;13.426;2023-01-29T10:03:52;50.83;;;30.17;;
30046;SDS011;16878;52.542;13.426;2023-01-29T10:06:42;51.78;;;29.58;;
30046;SDS011;16878;52.542;13.426;2023-01-29T10:09:35;51.03;;;28.98;;
30046;SDS011;16878;52.542;13.426;2023-01-29T10:23:31;48.95;;;27.42;;
30046;SDS011;16878;52.542;13.426;2023-01-29T10:26:02;45.92;;;28.00;;
30046;SDS011;16878;52.542;13.426;2023-01-29T10:31:15;46.42;;;26.00;;
30046;SDS011;16878;52.542;13.426;2023-01-29T10:33:56;49.58;;;29.67;;
30046;SDS011;16878;52.542;13.426;2023-01-29T10:36:27;49.83;;;28.13;;
30046;SDS011;16878;52.542;13.426;2023-01-29T10:39:02;50.08;;;28.80;;
30046;SDS011;16878;52.542;13.426;2023-01-29T10:44:16;44.10;;;26.77;;
30046;SDS011;16878;52.542;13.426;2023-01-29T10:49:53;44.03;;;24.52;;
30046;SDS011;16878;52.542;13.426;2023-01-29T11:02:26;39.35;;;24.75;;
30046;SDS011;16878;52.542;13.426;2023-01-29T11:04:52;37.67;;;23.63;;
30046;SDS011;16878;52.542;13.426;2023-01-29T11:07:18;39.40;;;24.55;;
30046;SDS011;16878;52.542;13.426;2023-01-29T11:12:16;39.70;;;22.65;;
30046;SDS011;16878;52.542;13.426;2023-01-29T11:17:22;41.33;;;23.23;;
30046;SDS011;16878;52.542;13.426;2023-01-29T11:19:49;40.60;;;24.00;;
30046;SDS011;16878;52.542;13.426;2023-01-29T11:22:17;42.03;;;24.45;;
30046;SDS011;16878;52.542;13.426;2023-01-29T11:25:14;42.70;;;24.42;;
30046;SDS011;16878;52.542;13.426;2023-01-29T11:27:48;35.88;;;22.17;;
30046;SDS011;16878;52.542;13.426;2023-01-29T11:30:30;34.47;;;21.80;;
30046;SDS011;16878;52.542;13.426;2023-01-29T11:38:23;34.20;;;20.58;;
30046;SDS011;16878;52.542;13.426;2023-01-29T11:40:50;31.45;;;19.90;;
30046;SDS011;16878;52.542;13.426;2023-01-29T11:45:52;37.80;;;21.20;;
30046;SDS011;16878;52.542;13.426;2023-01-29T11:48:21;35.40;;;20.98;;
30046;SDS011;16878;52.542;13.426;2023-01-29T11:50:55;38.03;;;20.00;;
30046;SDS011;16878;52.542;13.426;2023-01-29T11:53:41;32.10;;;19.90;;
30046;SDS011;16878;52.542;13.426;2023-01-29T11:56:28;32.75;;;20.10;;
30046;SDS011;16878;52.542;13.426;2023-01-29T11:58:58;39.05;;;22.13;;
30046;SDS011;16878;52.542;13.426;2023-01-29T12:01:32;33.38;;;19.98;;
30046;SDS011;16878;52.542;13.426;2023-01-29T12:04:01;36.58;;;21.45;;
30046;SDS011;16878;52.542;13.426;2023-01-29T12:06:35;36.22;;;20.25;;
30046;SDS011;16878;52.542;13.426;2023-01-29T12:09:09;36.53;;;21.02;;
30046;SDS011;16878;52.542;13.426;2023-01-29T12:11:43;36.35;;;22.40;;
30046;SDS011;16878;52.542;13.426;2023-01-29T12:17:14;34.13;;;20.77;;
30046;SDS011;16878;52.542;13.426;2023-01-29T12:19:54;29.58;;;20.00;;
30046;SDS011;16878;52.542;13.426;2023-01-29T12:27:52;33.53;;;19.90;;
30046;SDS011;16878;52.542;13.426;2023-01-29T12:30:30;36.25;;;18.85;;
30046;SDS011;16878;52.542;13.426;2023-01-29T12:33:12;30.95;;;19.08;;
30046;SDS011;16878;52.542;13.426;2023-01-29T12:35:49;34.03;;;20.02;;
30046;SDS011;16878;52.542;13.426;2023-01-29T12:38:22;44.35;;;23.13;;
30046;SDS011;16878;52.542;13.426;2023-01-29T12:41:04;33.22;;;21.48;;
30046;SDS011;16878;52.542;13.426;2023-01-29T12:43:39;34.00;;;20.08;;
30046;SDS011;16878;52.542;13.426;2023-01-29T12:46:28;32.10;;;19.85;;
30046;SDS011;16878;52.542;13.426;2023-01-29T12:48:57;33.75;;;20.58;;
30046;SDS011;16878;52.542;13.426;2023-01-29T12:51:29;35.25;;;20.48;;
30046;SDS011;16878;52.542;13.426;2023-01-29T12:54:07;33.63;;;20.45;;
30046;SDS011;16878;52.542;13.426;2023-01-29T12:56:41;38.85;;;19.48;;
30046;SDS011;16878;52.542;13.426;2023-01-29T12:59:19;32.80;;;19.52;;
30046;SDS011;16878;52.542;13.426;2023-01-29T13:04:54;33.42;;;20.42;;
30046;SDS011;16878;52.542;13.426;2023-01-29T13:07:44;34.45;;;20.08;;
30046;SDS011;16878;52.542;13.426;2023-01-29T13:10:15;34.22;;;20.00;;
30046;SDS011;16878;52.542;13.426;2023-01-29T13:12:53;31.88;;;20.30;;
30046;SDS011;16878;52.542;13.426;2023-01-29T13:15:38;33.78;;;20.92;;
30046;SDS011;16878;52.542;13.426;2023-01-29T13:18:19;34.03;;;19.35;;
30046;SDS011;16878;52.542;13.426;2023-01-29T13:20:57;31.38;;;19.98;;
30046;SDS011;16878;52.542;13.426;2023-01-29T13:23:29;31.95;;;19.05;;
30046;SDS011;16878;52.542;13.426;2023-01-29T13:26:03;31.60;;;19.83;;
30046;SDS011;16878;52.542;13.426;2023-01-29T13:28:30;34.95;;;20.10;;
30046;SDS011;16878;52.542;13.426;2023-01-29T13:33:53;35.42;;;21.17;;
30046;SDS011;16878;52.542;13.426;2023-01-29T13:36:28;37.65;;;21.08;;
30046;SDS011;16878;52.542;13.426;2023-01-29T13:38:59;31.02;;;20.35;;
30046;SDS011;16878;52.542;13.426;2023-01-29T13:41:36;38.17;;;22.65;;
30046;SDS011;16878;52.542;13.426;2023-01-29T13:44:07;31.15;;;19.42;;
30046;SDS011;16878;52.542;13.426;2023-01-29T13:46:49;36.53;;;20.27;;
30046;SDS011;16878;52.542;13.426;2023-01-29T13:49:22;35.63;;;19.77;;
30046;SDS011;16878;52.542;13.426;2023-01-29T13:52:13;32.50;;;20.15;;
30046;SDS011;16878;52.542;13.426;2023-01-29T13:54:56;36.33;;;20.38;;
30046;SDS011;16878;52.542;13.426;2023-01-29T14:03:32;34.80;;;21.92;;
30046;SDS011;16878;52.542;13.426;2023-01-29T14:13:39;46.08;;;26.58;;
30046;SDS011;16878;52.542;13.426;2023-01-29T14:23:57;47.35;;;26.50;;
30046;SDS011;16878;52.542;13.426;2023-01-29T14:31:46;43.08;;;26.35;;
30046;SDS011;16878;52.542;13.426;2023-01-29T14:34:30;51.53;;;28.38;;
30046;SDS011;16878;52.542;13.426;2023-01-29T14:39:55;52.80;;;29.35;;
30046;SDS011;16878;52.542;13.426;2023-01-29T14:42:26;45.88;;;26.33;;
30046;SDS011;16878;52.542;13.426;2023-01-29T14:53:40;48.08;;;28.67;;
30046;SDS011;16878;52.542;13.426;2023-01-29T14:55:43;48.33;;;28.70;;
30046;SDS011;16878;52.542;13.426;2023-01-29T14:58:25;53.35;;;29.90;;
30046;SDS011;16878;52.542;13.426;2023-01-29T15:01:01;61.15;;;32.58;;
30046;SDS011;16878;52.542;13.426;2023-01-29T15:03:36;52.97;;;29.98;;
30046;SDS011;16878;52.542;13.426;2023-01-29T15:12:02;56.08;;;31.10;;
30046;SDS011;16878;52.542;13.426;2023-01-29T15:14:55;53.83;;;30.15;;
30046;SDS011;16878;52.542;13.426;2023-01-29T15:17:25;47.65;;;28.00;;
30046;SDS011;16878;52.542;13.426;2023-01-29T15:19:54;45.03;;;27.00;;
30046;SDS011;16878;52.542;13.426;2023-01-29T15:22:22;48.97;;;27.73;;
30046;SDS011;16878;52.542;13.426;2023-01-29T15:25:08;49.40;;;28.63;;
30046;SDS011;16878;52.542;13.426;2023-01-29T15:27:41;46.60;;;27.70;;
30046;SDS011;16878;52.542;13.426;2023-01-29T15:30:11;47.17;;;28.42;;
30046;SDS011;16878;52.542;13.426;2023-01-29T15:32:40;49.72;;;29.83;;
30046;SDS011;16878;52.542;13.426;2023-01-29T15:35:08;50.47;;;28.55;;
30046;SDS011;16878;52.542;13.426;2023-01-29T15:37:36;47.88;;;28.52;;
30046;SDS011;16878;52.542;13.426;2023-01-29T15:40:02;49.00;;;28.30;;
30046;SDS011;16878;52.542;13.426;2023-01-29T15:42:41;52.30;;;28.05;;
30046;SDS011;16878;52.542;13.426;2023-01-29T15:45:31;46.58;;;27.75;;
30046;SDS011;16878;52.542;13.426;2023-01-29T15:48:11;44.20;;;27.35;;
30046;SDS011;16878;52.542;13.426;2023-01-29T15:50:40;49.35;;;28.45;;
30046;SDS011;16878;52.542;13.426;2023-01-29T15:53:07;52.72;;;28.85;;
30046;SDS011;16878;52.542;13.426;2023-01-29T15:55:38;49.72;;;28.52;;
30046;SDS011;16878;52.542;13.426;2023-01-29T15:58:05;48.05;;;27.38;;
30046;SDS011;16878;52.542;13.426;2023-01-29T16:00:36;46.00;;;27.80;;
30046;SDS011;16878;52.542;13.426;2023-01-29T16:03:11;49.90;;;27.08;;
30046;SDS011;16878;52.542;13.426;2023-01-29T16:05:44;48.25;;;28.42;;
30046;SDS011;16878;52.542;13.426;2023-01-29T16:08:11;46.50;;;27.67;;
30046;SDS011;16878;52.542;13.426;2023-01-29T16:10:39;46.95;;;28.52;;
30046;SDS011;16878;52.542;13.426;2023-01-29T16:13:10;42.17;;;27.15;;
30046;SDS011;16878;52.542;13.426;2023-01-29T16:21:16;46.63;;;26.80;;
30046;SDS011;16878;52.542;13.426;2023-01-29T16:23:50;48.00;;;28.33;;
30046;SDS011;16878;52.542;13.426;2023-01-29T16:26:26;45.38;;;26.83;;
30046;SDS011;16878;52.542;13.426;2023-01-29T16:28:56;48.38;;;27.63;;
30046;SDS011;16878;52.542;13.426;2023-01-29T16:31:27;44.05;;;25.80;;
30046;SDS011;16878;52.542;13.426;2023-01-29T16:33:55;46.90;;;27.40;;
30046;SDS011;16878;52.542;13.426;2023-01-29T16:36:23;46.40;;;27.73;;
30046;SDS011;16878;52.542;13.426;2023-01-29T16:38:55;51.00;;;27.80;;
30046;SDS011;16878;52.542;13.426;2023-01-29T16:41:35;47.13;;;26.77;;
30046;SDS011;16878;52.542;13.426;2023-01-29T16:46:48;49.83;;;28.02;;
30046;SDS011;16878;52.542;13.426;2023-01-29T16:51:54;42.17;;;25.40;;
30046;SDS011;16878;52.542;13.426;2023-01-29T16:54:24;44.85;;;27.27;;
30046;SDS011;16878;52.542;13.426;2023-01-29T16:56:52;44.88;;;26.15;;
30046;SDS011;16878;52.542;13.426;2023-01-29T16:59:33;44.08;;;25.00;;
30046;SDS011;16878;52.542;13.426;2023-01-29T17:02:02;39.33;;;25.70;;
30046;SDS011;16878;52.542;13.426;2023-01-29T17:04:33;43.67;;;26.15;;
30046;SDS011;16878;52.542;13.426;2023-01-29T17:06:59;48.83;;;26.33;;
30046;SDS011;16878;52.542;13.426;2023-01-29T17:09:30;44.30;;;26.17;;
30046;SDS011;16878;52.542;13.426;2023-01-29T17:12:03;40.60;;;25.00;;
30046;SDS011;16878;52.542;13.426;2023-01-29T17:14:32;48.17;;;26.75;;
30046;SDS011;16878;52.542;13.426;2023-01-29T17:17:02;41.63;;;24.57;;
30046;SDS011;16878;52.542;13.426;2023-01-29T17:19:40;46.97;;;26.90;;
30046;SDS011;16878;52.542;13.426;2023-01-29T17:22:06;44.17;;;25.45;;
30046;SDS011;16878;52.542;13.426;2023-01-29T17:24:41;43.17;;;25.42;;
30046;SDS011;16878;52.542;13.426;2023-01-29T17:27:20;42.75;;;26.10;;
30046;SDS011;16878;52.542;13.426;2023-01-29T17:29:47;52.83;;;24.98;;
30046;SDS011;16878;52.542;13.426;2023-01-29T17:32:14;39.15;;;24.30;;